Huvudsida
METAR-TAF:

METAR-TAF

Flygplatser :

Chapecó Airport

Chapecó, Santa Catarina, Brasilien

latitud: 27-08-02S, longitud: 052-39-43W, höjd: 654 m

Aktuellt väderrapport

Denna rapport gjordes för 4 timmar och 7 minuter sedan, klockan 09:00 UTC
Stilla vind
Temperatur 20°C
Fuktighet 78%
Tryck 1015 hPa
Sikt 10 km eller mer
Spridda moln på en höjd av 1500 ft
Brutna moln på en höjd av 10000 ft

METAR: SBCH 200900Z 00000KT 9999 SCT015 BKN100 20/16 Q1015

Tid: 10:07 (13:07 UTC)


TAF: saknas

Aktuella väderrapporter och prognoser från 4000 flygplatser (METAR- och TAF-rapporter).

De tillgängliga stationerna syns som gula och röda prickar på kartan.

För musen över prickarna för att se namnen på stationerna.

Klicka sedan för att få väderrapporter och prognoser.

För att ändra kartan: Klicka på de gröna knapparna med ett svart kors på för att zooma in; den gröna knappen med ett streck på för att zooma ut; eller på de gröna pilarna för angränsande kartor.


METAR-TAF: